Time;durP1;ratioP1;P1;durP2;ratioP2;P2;SDS_P1;SDS_P2;PMS_P1;PMS_P2;Temp;Humidity;BMP_temperature;BMP_pressure;BME280_temperature;BME280_humidity;BME280_pressure;Samples;Min_cycle;Max_cycle;Signal;HPM_P1;HPM_P2
2021/09/14 00:01:32;;;;;;;8.85;8.15;;;;;;;20.40;75.49;95673.66;5055948;28;20335;-84
2021/09/14 00:03:58;;;;;;;9.35;8.60;;;;;;;20.40;75.41;95675.50;5064881;28;20197;-85
2021/09/14 00:06:25;;;;;;;9.02;7.90;;;;;;;20.48;74.82;95677.72;5060124;28;20229;-85
2021/09/14 00:08:51;;;;;;;8.55;7.85;;;;;;;20.47;74.53;95676.13;5056514;28;20193;-85
2021/09/14 00:11:18;;;;;;;7.97;7.35;;;;;;;20.42;74.81;95671.59;5055893;28;20229;-86
2021/09/14 00:13:44;;;;;;;7.88;7.25;;;;;;;20.40;74.87;95680.75;5056010;28;20280;-85
2021/09/14 00:16:11;;;;;;;8.40;7.60;;;;;;;20.29;75.16;95683.13;5055563;28;20221;-85
2021/09/14 00:18:39;;;;;;;7.95;7.35;;;;;;;20.21;75.49;95677.47;5056299;28;20201;-85
2021/09/14 00:21:05;;;;;;;7.78;7.18;;;;;;;20.14;75.70;95675.00;5056270;28;20205;-85
2021/09/14 00:23:32;;;;;;;8.07;7.28;;;;;;;20.13;75.64;95672.63;5055984;28;20205;-86
2021/09/14 00:25:58;;;;;;;8.20;7.40;;;;;;;20.01;76.64;95664.84;5056368;28;20228;-85
2021/09/14 00:28:25;;;;;;;8.18;7.57;;;;;;;20.05;76.33;95668.56;5056077;28;20739;-85
2021/09/14 00:30:51;;;;;;;8.02;7.40;;;;;;;20.00;76.09;95669.28;5059279;28;20599;-85
2021/09/14 00:33:19;;;;;;;9.55;7.03;;;;;;;20.04;75.97;95674.81;5060611;28;20212;-85
2021/09/14 00:35:47;;;;;;;7.53;6.80;;;;;;;20.01;76.11;95673.44;5059460;28;20225;-85
2021/09/14 00:38:13;;;;;;;8.00;7.30;;;;;;;19.81;76.76;95675.72;5060283;28;20201;-85
2021/09/14 00:40:40;;;;;;;7.95;7.32;;;;;;;19.69;76.79;95674.13;5060683;28;20201;-85
2021/09/14 00:43:06;;;;;;;8.35;7.60;;;;;;;19.61;77.43;95667.47;5059927;28;20198;-86
2021/09/14 00:45:33;;;;;;;7.90;7.20;;;;;;;19.59;77.76;95667.69;5060820;28;20217;-86
2021/09/14 00:47:59;;;;;;;7.93;7.22;;;;;;;19.63;77.78;95670.63;5060083;28;20205;-86
2021/09/14 00:50:26;;;;;;;7.68;7.07;;;;;;;19.66;77.25;95670.94;5060601;28;20233;-85
2021/09/14 00:52:54;;;;;;;7.63;7.03;;;;;;;19.65;77.38;95665.94;5060074;28;20665;-86
2021/09/14 00:55:21;;;;;;;7.70;7.00;;;;;;;19.71;76.79;95664.25;5060092;28;20217;-85
2021/09/14 00:57:48;;;;;;;7.28;6.57;;;;;;;19.72;76.31;95664.00;5060178;28;20591;-85
2021/09/14 01:00:15;;;;;;;6.85;6.30;;;;;;;19.77;76.17;95663.34;5060096;28;20232;-85
2021/09/14 01:02:42;;;;;;;7.63;6.93;;;;;;;19.78;75.79;95657.88;5059922;28;20202;-85
2021/09/14 01:05:09;;;;;;;7.53;6.75;;;;;;;19.78;75.43;95659.69;5059658;28;20393;-84
2021/09/14 01:07:36;;;;;;;9.38;6.90;;;;;;;19.75;75.22;95653.09;5059391;28;20631;-85
2021/09/14 01:10:04;;;;;;;7.28;6.55;;;;;;;19.71;75.24;95661.63;5060080;28;20205;-85
2021/09/14 01:12:31;;;;;;;7.35;6.68;;;;;;;19.65;75.29;95653.69;5059320;28;20208;-86
2021/09/14 01:14:58;;;;;;;7.65;7.03;;;;;;;19.56;75.49;95646.47;5059641;28;20197;-85
2021/09/14 01:17:26;;;;;;;7.00;6.40;;;;;;;19.60;75.43;95650.19;5060254;28;20201;-85
2021/09/14 01:19:53;;;;;;;7.07;6.55;;;;;;;19.58;75.35;95647.81;5039372;28;20197;-86
2021/09/14 01:22:19;;;;;;;7.47;6.78;;;;;;;19.49;75.51;95638.72;5040958;28;20213;-85
2021/09/14 01:24:47;;;;;;;7.63;6.25;;;;;;;19.54;75.28;95643.28;5039844;28;20206;-85
2021/09/14 01:27:13;;;;;;;7.15;6.55;;;;;;;19.50;75.50;95642.16;5040162;28;20221;-86
2021/09/14 01:32:24;;;;;;;6.90;6.30;;;;;;;19.52;75.25;95640.09;5039831;28;20233;-85
2021/09/14 01:34:50;;;;;;;7.45;6.85;;;;;;;19.45;75.10;95644.63;5039313;28;20632;-85
2021/09/14 01:37:17;;;;;;;7.15;6.65;;;;;;;19.29;76.28;95643.50;5038819;28;20202;-86
2021/09/14 01:39:43;;;;;;;7.80;7.00;;;;;;;19.19;76.88;95641.50;5039220;28;20206;-86
2021/09/14 01:42:11;;;;;;;7.57;6.97;;;;;;;19.21;76.80;95641.28;5039078;28;20194;-85
2021/09/14 01:44:38;;;;;;;7.50;6.90;;;;;;;19.23;76.76;95645.25;5039673;28;20205;-85
2021/09/14 01:47:04;;;;;;;7.28;6.60;;;;;;;19.25;76.57;95647.59;5039879;28;20596;-85
2021/09/14 01:49:31;;;;;;;7.32;6.72;;;;;;;19.29;76.15;95636.47;5039770;28;20213;-84
2021/09/14 01:51:59;;;;;;;7.32;6.72;;;;;;;19.14;76.55;95643.19;5039248;28;20222;-85
2021/09/14 01:54:26;;;;;;;7.75;6.93;;;;;;;19.08;76.78;95646.69;5039827;28;20204;-85
2021/09/14 01:56:52;;;;;;;6.90;6.40;;;;;;;19.05;77.20;95650.56;5040192;28;20610;-86
2021/09/14 01:59:20;;;;;;;7.65;6.55;;;;;;;19.09;77.08;95649.09;5039687;28;20216;-84
2021/09/14 02:01:53;;;;;;;6.95;5.97;;;;;;;19.17;76.27;95650.56;5038906;28;20244;-86
2021/09/14 02:04:30;;;;;;;6.90;6.40;;;;;;;19.18;76.21;95652.16;5040683;28;20210;-86
2021/09/14 02:43:05;;;;;;;6.70;6.20;;;;;;;19.06;76.08;95653.97;5128220;27;20199;-84
2021/09/14 02:59:10;;;;;;;6.38;5.88;;;;;;;19.12;76.11;95647.84;5104934;28;20677;-85
2021/09/14 03:01:36;;;;;;;6.72;6.13;;;;;;;19.15;75.87;95644.78;5106651;27;20227;-86
2021/09/14 03:04:05;;;;;;;7.00;6.50;;;;;;;19.15;75.83;95644.78;5106457;28;20206;-85
2021/09/14 03:06:32;;;;;;;7.00;6.35;;;;;;;19.14;75.62;95643.19;5120081;28;20302;-84
2021/09/14 03:08:58;;;;;;;6.25;5.75;;;;;;;19.11;76.13;95643.66;5127014;28;20243;-84
2021/09/14 03:11:25;;;;;;;6.88;6.15;;;;;;;19.04;76.12;95645.59;5127472;27;20195;-84
2021/09/14 03:13:51;;;;;;;6.32;5.82;;;;;;;19.04;76.10;95643.00;5127114;27;20187;-84
2021/09/14 03:16:19;;;;;;;6.10;5.60;;;;;;;19.04;75.97;95643.00;5126838;27;20223;-84
2021/09/14 03:18:46;;;;;;;6.30;5.70;;;;;;;19.09;75.82;95646.47;5126976;27;20690;-85
2021/09/14 03:21:14;;;;;;;6.22;5.72;;;;;;;19.12;75.59;95647.84;5113434;28;20207;-85
2021/09/14 03:23:41;;;;;;;6.20;5.57;;;;;;;19.15;75.11;95637.75;5113465;28;20195;-84
2021/09/14 03:26:07;;;;;;;6.50;6.00;;;;;;;19.13;74.71;95631.97;5112990;28;20588;-85
2021/09/14 03:28:34;;;;;;;6.15;5.65;;;;;;;19.05;74.69;95629.69;5109969;28;20683;-84
2021/09/14 03:31:01;;;;;;;6.78;6.28;;;;;;;19.04;74.42;95633.34;5112861;28;20202;-84
2021/09/14 03:33:29;;;;;;;6.72;6.10;;;;;;;19.03;74.33;95629.13;5112676;28;20203;-84
2021/09/14 03:35:55;;;;;;;5.93;5.45;;;;;;;18.96;74.67;95633.66;5112753;28;20219;-84
2021/09/14 03:38:22;;;;;;;6.50;5.90;;;;;;;19.01;74.53;95631.19;5112643;28;20555;-84
2021/09/14 03:40:48;;;;;;;6.00;5.50;;;;;;;19.05;74.06;95623.69;5112759;28;20719;-85
2021/09/14 03:43:15;;;;;;;6.35;5.85;;;;;;;19.04;74.07;95622.91;5112546;28;20206;-84
2021/09/14 03:45:44;;;;;;;6.20;5.70;;;;;;;19.02;73.98;95626.75;5112480;28;20234;-85
2021/09/14 03:48:10;;;;;;;6.68;6.07;;;;;;;19.02;73.97;95630.16;5112526;28;20276;-84
2021/09/14 03:50:38;;;;;;;5.95;5.55;;;;;;;18.91;74.16;95623.13;5112764;28;20211;-84
2021/09/14 03:53:05;;;;;;;6.10;5.70;;;;;;;18.87;74.36;95625.38;5112069;28;20658;-85
2021/09/14 03:55:32;;;;;;;6.68;6.07;;;;;;;18.81;74.62;95628.13;5112431;28;20728;-85
2021/09/14 03:57:58;;;;;;;6.15;5.65;;;;;;;18.76;74.70;95622.78;5112666;28;20199;-84
2021/09/14 04:00:25;;;;;;;5.93;5.38;;;;;;;18.83;74.76;95613.81;5112056;28;20230;-85
2021/09/14 04:02:54;;;;;;;5.65;5.15;;;;;;;18.85;74.73;95614.41;5112957;28;20235;-85
2021/09/14 04:05:30;;;;;;;5.88;5.38;;;;;;;18.88;74.41;95613.91;5112207;28;20245;-85
2021/09/14 04:10:45;;;;;;;5.68;5.28;;;;;;;18.80;74.26;95616.09;5112007;28;20955;-84
2021/09/14 04:13:15;;;;;;;6.15;5.65;;;;;;;18.77;74.41;95624.38;5112039;28;20192;-84
2021/09/14 04:15:42;;;;;;;6.00;5.57;;;;;;;18.76;74.62;95614.94;5111978;28;20234;-84
2021/09/14 04:18:10;;;;;;;6.50;6.00;;;;;;;18.74;74.84;95615.19;5106553;28;20204;-84
2021/09/14 04:20:37;;;;;;;5.85;5.45;;;;;;;18.67;74.97;95618.91;5091606;28;20239;-84
2021/09/14 04:23:04;;;;;;;5.78;5.38;;;;;;;18.70;75.04;95614.03;5091388;28;20615;-84
2021/09/14 04:25:31;;;;;;;5.82;5.32;;;;;;;18.75;74.80;95621.19;5091287;28;20216;-83
2021/09/14 04:27:57;;;;;;;6.20;5.70;;;;;;;18.82;74.80;95620.06;5106237;28;20662;-86
2021/09/14 04:30:24;;;;;;;6.00;5.50;;;;;;;18.86;74.54;95615.16;5112188;28;20212;-84
2021/09/14 04:32:50;;;;;;;6.43;5.93;;;;;;;18.68;75.33;95621.28;5111196;28;20662;-84
2021/09/14 04:35:17;;;;;;;6.38;5.78;;;;;;;18.66;74.91;95623.34;5111701;28;20706;-84
2021/09/14 04:37:43;;;;;;;6.15;5.75;;;;;;;18.43;76.04;95624.09;5111985;28;20982;-85
2021/09/14 04:40:13;;;;;;;5.63;5.22;;;;;;;18.21;77.01;95618.59;5100099;28;20206;-84
2021/09/14 04:42:39;;;;;;;6.57;6.07;;;;;;;18.25;76.80;95614.53;5105761;28;20204;-84
2021/09/14 04:45:07;;;;;;;6.85;6.25;;;;;;;18.40;76.48;95621.13;5111453;28;20241;-83
2021/09/14 04:47:34;;;;;;;6.63;6.03;;;;;;;18.35;76.54;95621.00;5115117;28;20203;-83
2021/09/14 04:50:00;;;;;;;6.10;5.57;;;;;;;18.39;76.08;95620.31;5114236;28;20211;-83
2021/09/14 04:52:27;;;;;;;6.10;5.60;;;;;;;18.42;76.58;95622.50;5116147;28;20202;-83
2021/09/14 04:54:53;;;;;;;7.70;5.85;;;;;;;18.49;76.43;95625.78;5115616;28;20203;-83
2021/09/14 04:57:21;;;;;;;6.57;5.97;;;;;;;18.50;76.80;95629.19;5116886;28;20223;-83
2021/09/14 04:59:47;;;;;;;8.73;7.93;;;;;;;18.44;76.77;95622.28;5107742;28;20196;-83
2021/09/14 05:02:14;;;;;;;6.45;5.95;;;;;;;18.47;76.72;95627.03;5116907;28;20324;-83
2021/09/14 05:04:40;;;;;;;6.15;5.63;;;;;;;18.45;76.98;95622.03;5115814;28;20202;-84
2021/09/14 05:07:07;;;;;;;6.78;6.18;;;;;;;18.27;78.01;95617.72;5116226;28;20226;-83
2021/09/14 05:09:33;;;;;;;6.43;5.82;;;;;;;18.25;78.03;95616.34;5115706;28;20234;-83
2021/09/14 05:12:01;;;;;;;7.45;6.28;;;;;;;18.21;78.96;95620.41;5116921;28;20244;-83
2021/09/14 05:14:29;;;;;;;6.30;5.70;;;;;;;18.18;79.15;95616.44;5114669;28;20422;-84
2021/09/14 05:16:56;;;;;;;6.50;5.90;;;;;;;18.15;78.84;95613.47;5108427;28;20210;-84
2021/09/14 05:19:30;;;;;;;6.47;5.88;;;;;;;18.13;79.06;95613.69;5110232;28;20196;-82
2021/09/14 05:21:58;;;;;;;6.20;5.70;;;;;;;18.16;78.88;95617.66;5115672;28;20245;-84
2021/09/14 05:24:25;;;;;;;6.07;5.57;;;;;;;18.26;78.79;95617.94;5111069;28;20221;-83
2021/09/14 05:27:00;;;;;;;5.78;5.20;;;;;;;18.38;77.94;95623.16;5115886;28;20223;-83
2021/09/14 05:29:28;;;;;;;6.93;6.30;;;;;;;18.43;77.92;95621.47;5115583;28;20732;-84
2021/09/14 05:31:56;;;;;;;6.38;5.97;;;;;;;18.49;77.85;95617.94;5115124;28;20257;-83
2021/09/14 05:34:23;;;;;;;6.68;6.00;;;;;;;18.47;77.99;95627.81;5115289;28;20234;-84
2021/09/14 05:36:50;;;;;;;7.65;5.97;;;;;;;18.50;77.76;95626.56;5111141;28;20317;-83
2021/09/14 05:39:17;;;;;;;7.15;5.78;;;;;;;18.63;77.51;95632.41;5115202;28;20192;-83
2021/09/14 05:41:43;;;;;;;7.35;6.03;;;;;;;18.70;77.18;95624.47;5114054;28;20214;-83
2021/09/14 05:44:10;;;;;;;8.88;5.65;;;;;;;18.79;76.56;95630.94;5113462;28;20199;-84
2021/09/14 05:46:38;;;;;;;6.15;5.57;;;;;;;18.75;76.81;95619.38;5112423;28;20221;-84
2021/09/14 05:49:06;;;;;;;8.25;5.50;;;;;;;18.82;76.73;95624.50;5114503;28;20839;-83
2021/09/14 05:51:55;;;;;;;7.80;6.20;;;;;;;18.90;76.80;95624.94;5114288;28;20198;-83
2021/09/14 05:54:28;;;;;;;6.60;5.95;;;;;;;18.97;76.24;95624.81;5112784;28;20290;-82
2021/09/14 05:56:57;;;;;;;7.05;5.72;;;;;;;19.10;76.15;95629.00;5114784;28;20215;-84
2021/09/14 05:59:26;;;;;;;5.95;5.45;;;;;;;19.21;75.91;95623.00;5115911;28;20191;-83
2021/09/14 06:02:09;;;;;;;6.43;5.93;;;;;;;19.25;75.69;95629.31;5112682;27;20319;-83
2021/09/14 06:04:35;;;;;;;6.25;5.65;;;;;;;19.22;75.52;95625.38;5113091;28;20199;-83
2021/09/14 06:07:07;;;;;;;7.78;6.13;;;;;;;19.25;75.56;95624.09;5116422;28;20570;-83
2021/09/14 06:09:34;;;;;;;5.85;5.05;;;;;;;19.33;76.16;95621.16;5115606;28;20804;-83
2021/09/14 06:12:01;;;;;;;5.32;4.82;;;;;;;19.57;76.52;95630.56;5116162;28;20725;-84
2021/09/14 06:14:32;;;;;;;5.60;5.13;;;;;;;19.83;75.72;95631.81;5116504;28;20215;-85
2021/09/14 06:17:14;;;;;;;7.60;5.30;;;;;;;20.05;74.56;95623.31;5115606;28;20219;-84
2021/09/14 06:19:42;;;;;;;6.30;5.28;;;;;;;20.15;73.60;95633.97;5116917;28;20201;-83
2021/09/14 06:22:08;;;;;;;6.90;6.20;;;;;;;20.05;74.09;95642.41;5116973;28;20246;-84
2021/09/14 06:24:35;;;;;;;6.38;5.78;;;;;;;20.03;73.13;95631.41;5114472;28;20200;-83
2021/09/14 06:27:02;;;;;;;6.72;6.13;;;;;;;19.95;73.55;95640.44;5108810;28;20778;-83
2021/09/14 06:29:28;;;;;;;9.32;5.70;;;;;;;19.90;74.22;95645.56;5109995;28;20208;-84
2021/09/14 06:31:55;;;;;;;8.57;6.47;;;;;;;20.07;74.07;95639.56;5104081;28;20241;-84
2021/09/14 06:34:21;;;;;;;6.97;6.28;;;;;;;20.13;73.96;95633.41;5114291;28;20196;-83
2021/09/14 06:36:49;;;;;;;7.07;6.07;;;;;;;20.09;73.42;95645.38;5110321;28;20249;-83
2021/09/14 06:39:16;;;;;;;6.22;5.72;;;;;;;20.23;72.98;95642.22;5112688;28;20215;-84
2021/09/14 06:41:42;;;;;;;7.10;6.03;;;;;;;20.47;71.69;95642.91;5110529;28;20203;-83
2021/09/14 06:44:09;;;;;;;6.65;6.05;;;;;;;20.63;71.34;95649.19;5107906;28;20192;-84
2021/09/14 06:46:35;;;;;;;7.10;6.40;;;;;;;20.45;70.51;95642.38;5112870;28;20310;-83
2021/09/14 06:49:02;;;;;;;6.68;5.97;;;;;;;20.61;70.43;95649.41;5111634;28;20215;-84
2021/09/14 06:51:28;;;;;;;9.52;5.88;;;;;;;20.69;69.94;95649.03;5110185;28;20196;-84
2021/09/14 06:53:56;;;;;;;6.80;5.70;;;;;;;20.90;69.28;95651.97;5111374;28;20192;-83
2021/09/14 06:56:24;;;;;;;10.18;6.18;;;;;;;21.22;68.86;95646.94;5115135;28;20219;-84
2021/09/14 06:58:50;;;;;;;6.68;5.75;;;;;;;21.36;67.71;95648.19;5115067;28;20223;-83
2021/09/14 07:01:18;;;;;;;7.72;5.82;;;;;;;21.35;67.75;95650.03;5113842;28;20234;-83
2021/09/14 07:03:45;;;;;;;5.90;5.28;;;;;;;21.54;66.65;95649.75;5115906;28;20211;-84
2021/09/14 07:06:11;;;;;;;6.05;5.43;;;;;;;21.76;65.71;95647.88;5114981;28;20227;-83
2021/09/14 07:08:38;;;;;;;5.97;5.25;;;;;;;21.77;66.08;95643.44;5114395;28;20211;-84
2021/09/14 07:11:06;;;;;;;5.57;5.07;;;;;;;21.90;65.36;95641.25;5113672;28;20230;-83
2021/09/14 07:13:32;;;;;;;5.75;5.18;;;;;;;21.98;66.07;95632.13;5096335;28;20208;-83
2021/09/14 07:15:59;;;;;;;5.60;5.00;;;;;;;22.18;65.29;95635.00;5093856;28;20220;-84
2021/09/14 07:18:27;;;;;;;5.88;5.30;;;;;;;22.23;64.40;95645.53;5093504;28;20207;-83
2021/09/14 07:20:53;;;;;;;6.10;5.22;;;;;;;22.56;63.67;95647.16;5103563;28;20566;-83
2021/09/14 07:23:21;;;;;;;5.68;5.15;;;;;;;22.65;61.79;95640.41;5108622;28;20191;-83
2021/09/14 07:25:47;;;;;;;5.97;5.10;;;;;;;22.78;62.16;95643.66;5114394;28;20223;-83
2021/09/14 07:31:32;;;;;;;6.03;4.75;;;;;;;22.98;61.87;95635.94;5086443;27;20234;-84
2021/09/14 07:33:59;;;;;;;9.68;4.80;;;;;;;23.15;61.68;95644.44;5114703;28;20199;-83
2021/09/14 07:36:26;;;;;;;7.38;5.00;;;;;;;23.31;61.09;95654.00;5103277;28;20235;-84
2021/09/14 07:38:53;;;;;;;5.30;4.80;;;;;;;23.50;60.51;95643.06;5093691;28;20710;-83
2021/09/14 07:41:19;;;;;;;6.18;4.88;;;;;;;23.69;61.09;95652.09;5093538;28;20196;-84
2021/09/14 07:43:46;;;;;;;6.80;5.28;;;;;;;23.88;60.23;95650.59;5099911;28;20198;-83
2021/09/14 07:46:12;;;;;;;11.27;5.43;;;;;;;24.06;60.15;95652.75;5107988;28;20216;-83
2021/09/14 07:48:40;;;;;;;7.03;4.90;;;;;;;24.32;59.57;95650.22;5112897;28;20318;-84
2021/09/14 07:51:08;;;;;;;5.32;4.82;;;;;;;24.27;57.47;95650.19;5112328;28;20584;-84
2021/09/14 07:53:34;;;;;;;5.53;5.00;;;;;;;24.35;57.23;95647.84;5113124;28;20210;-84
2021/09/14 07:56:01;;;;;;;5.13;4.72;;;;;;;24.63;57.61;95654.44;5113577;28;20272;-83
2021/09/14 07:58:28;;;;;;;5.22;4.82;;;;;;;24.87;55.75;95651.28;5113631;28;20181;-84
2021/09/14 08:00:54;;;;;;;5.28;4.88;;;;;;;24.83;55.97;95652.84;5110483;27;20238;-84
2021/09/14 08:03:24;;;;;;;6.35;4.85;;;;;;;25.07;55.22;95648.66;5111642;28;20226;-83
2021/09/14 08:05:52;;;;;;;5.30;4.65;;;;;;;25.27;55.00;95650.47;5111177;28;20255;-85
2021/09/14 08:08:18;;;;;;;5.15;4.72;;;;;;;25.33;53.71;95652.03;5094190;27;20207;-84
2021/09/14 08:10:45;;;;;;;5.70;5.00;;;;;;;25.32;53.93;95659.16;5090462;28;20216;-83
2021/09/14 08:13:11;;;;;;;5.20;4.80;;;;;;;25.24;53.76;95659.69;5102050;28;20577;-84
2021/09/14 08:15:38;;;;;;;5.80;4.88;;;;;;;25.28;54.14;95658.09;5111150;28;20227;-84
2021/09/14 08:18:04;;;;;;;5.60;4.97;;;;;;;25.43;53.39;95655.44;5111307;28;20207;-84
2021/09/14 08:20:31;;;;;;;5.22;4.75;;;;;;;25.67;52.86;95653.00;5110505;28;20199;-84
2021/09/14 08:22:59;;;;;;;5.03;4.63;;;;;;;25.87;52.38;95651.34;5110729;28;20207;-86
2021/09/14 08:25:25;;;;;;;4.80;4.40;;;;;;;25.99;52.15;95657.09;5111286;28;20223;-84
2021/09/14 08:27:54;;;;;;;5.10;4.72;;;;;;;26.00;52.44;95650.75;5111100;28;20302;-84
2021/09/14 08:30:22;;;;;;;5.03;4.60;;;;;;;26.19;51.27;95651.69;5111196;28;20654;-84
2021/09/14 08:32:50;;;;;;;5.32;4.60;;;;;;;26.39;51.44;95646.31;5110958;28;20257;-86
2021/09/14 08:35:17;;;;;;;5.20;4.63;;;;;;;26.57;50.88;95644.06;5109637;28;20563;-84
2021/09/14 08:37:44;;;;;;;4.78;4.38;;;;;;;26.55;51.17;95649.66;5090841;28;20204;-86
2021/09/14 08:40:13;;;;;;;6.18;4.55;;;;;;;26.49;50.35;95659.47;5091701;28;20200;-84
2021/09/14 08:42:40;;;;;;;4.78;4.32;;;;;;;26.70;50.33;95654.81;5111352;28;20213;-84
2021/09/14 08:45:09;;;;;;;4.25;3.95;;;;;;;26.84;49.45;95654.97;5110900;27;20200;-84
2021/09/14 08:47:37;;;;;;;5.00;4.60;;;;;;;27.03;49.49;95650.59;5111247;28;20276;-84
2021/09/14 08:50:04;;;;;;;4.60;4.20;;;;;;;27.09;49.41;95649.50;5111986;28;20223;-84
2021/09/14 08:52:32;;;;;;;4.75;4.35;;;;;;;27.08;49.53;95652.41;5111835;28;20195;-84
2021/09/14 08:54:58;;;;;;;4.57;4.28;;;;;;;27.20;48.74;95649.38;5112439;28;20206;-84
2021/09/14 08:57:26;;;;;;;4.80;4.40;;;;;;;27.11;47.20;95647.38;5112713;28;20268;-84
2021/09/14 09:00:08;;;;;;;7.55;4.25;;;;;;;27.28;47.51;95648.78;5110588;28;20686;-84
2021/09/14 09:02:34;;;;;;;4.60;4.20;;;;;;;27.27;48.64;95642.72;5111536;28;20577;-83
2021/09/14 09:05:03;;;;;;;5.68;4.55;;;;;;;27.43;47.03;95652.06;5111105;28;20199;-84
2021/09/14 09:07:33;;;;;;;4.80;4.40;;;;;;;27.49;46.42;95636.91;5101393;28;20192;-83
2021/09/14 09:10:14;;;;;;;6.15;4.60;;;;;;;27.61;46.40;95644.47;5090943;28;20220;-84
2021/09/14 09:12:46;;;;;;;4.70;4.30;;;;;;;27.76;47.22;95647.72;5110720;28;20289;-84
2021/09/14 09:15:22;;;;;;;6.25;4.43;;;;;;;27.64;46.93;95646.56;5110412;28;20231;-84
2021/09/14 09:18:01;;;;;;;4.53;4.13;;;;;;;27.61;45.17;95647.91;5110019;28;20289;-84
2021/09/14 09:20:28;;;;;;;7.50;4.47;;;;;;;27.75;45.50;95642.72;5110228;28;20256;-84
2021/09/14 09:22:59;;;;;;;5.28;4.18;;;;;;;27.75;44.79;95642.72;5110253;28;20280;-83
2021/09/14 09:25:26;;;;;;;5.00;4.50;;;;;;;27.79;45.32;95643.72;5110007;28;20737;-84
2021/09/14 09:28:03;;;;;;;4.60;4.20;;;;;;;27.84;44.51;95639.16;5110254;28;20223;-84
2021/09/14 09:30:33;;;;;;;4.75;4.35;;;;;;;27.95;44.54;95641.66;5109739;28;20814;-84
2021/09/14 09:33:02;;;;;;;4.50;4.20;;;;;;;27.85;44.89;95638.09;5110236;28;20203;-84
2021/09/14 09:35:31;;;;;;;4.60;4.18;;;;;;;27.65;43.71;95640.19;5107805;28;20211;-83
2021/09/14 09:37:58;;;;;;;10.10;4.00;;;;;;;27.75;44.83;95638.22;5090968;28;20702;-84
2021/09/14 09:40:26;;;;;;;4.03;3.72;;;;;;;27.60;43.93;95638.41;5109942;28;20191;-84
2021/09/14 09:42:53;;;;;;;4.97;4.22;;;;;;;27.62;44.33;95630.97;5109757;28;20839;-84
2021/09/14 09:45:21;;;;;;;4.60;4.20;;;;;;;27.60;44.86;95633.09;5110096;28;20198;-84
2021/09/14 09:47:49;;;;;;;4.03;3.70;;;;;;;27.76;44.44;95634.50;5109206;28;20207;-84
2021/09/14 09:50:16;;;;;;;10.13;3.97;;;;;;;27.76;43.36;95617.81;5108931;28;20226;-84
2021/09/14 09:52:44;;;;;;;4.40;3.97;;;;;;;27.59;44.97;95626.25;5110019;28;20696;-84
2021/09/14 09:55:12;;;;;;;4.95;3.63;;;;;;;27.58;45.77;95624.66;5110824;28;20290;-84
2021/09/14 09:57:39;;;;;;;7.47;4.20;;;;;;;27.43;44.05;95625.59;5110087;28;20195;-84
2021/09/14 10:00:12;;;;;;;6.25;4.47;;;;;;;27.45;44.71;95625.31;5109759;28;20200;-83
2021/09/14 10:02:44;;;;;;;4.43;4.00;;;;;;;27.55;45.79;95629.69;5109796;28;20199;-84
2021/09/14 10:05:12;;;;;;;5.78;4.65;;;;;;;27.48;46.97;95622.91;5109693;28;20202;-83
2021/09/14 10:07:43;;;;;;;5.35;4.60;;;;;;;27.49;45.89;95632.41;5109953;28;20199;-83
2021/09/14 10:10:10;;;;;;;4.30;4.00;;;;;;;27.49;46.15;95631.63;5110195;28;20589;-84
2021/09/14 10:12:37;;;;;;;4.03;3.72;;;;;;;27.62;44.77;95623.03;5098193;28;20287;-83
2021/09/14 10:15:07;;;;;;;4.05;3.75;;;;;;;27.81;44.48;95621.22;5088424;28;20238;-84
2021/09/14 10:17:48;;;;;;;4.40;4.00;;;;;;;27.77;44.43;95622.06;5089730;28;20231;-83
2021/09/14 10:20:15;;;;;;;4.10;3.80;;;;;;;27.63;44.35;95618.53;5089294;28;20720;-83
2021/09/14 10:22:45;;;;;;;4.00;3.70;;;;;;;27.54;44.93;95607.75;5098996;28;20195;-84
2021/09/14 10:25:21;;;;;;;4.50;4.10;;;;;;;27.53;45.18;95614.91;5109761;28;20216;-83
2021/09/14 10:27:48;;;;;;;4.13;3.83;;;;;;;27.64;44.74;95609.53;5109296;28;20558;-84
2021/09/14 10:30:23;;;;;;;4.32;4.03;;;;;;;27.68;45.10;95613.19;5111382;28;20221;-84
2021/09/14 10:32:50;;;;;;;4.45;3.72;;;;;;;27.69;45.12;95604.19;5113779;28;20199;-83
2021/09/14 10:35:28;;;;;;;4.03;3.72;;;;;;;27.82;44.81;95606.91;5112597;28;20294;-84
2021/09/14 10:38:08;;;;;;;6.03;3.60;;;;;;;28.03;44.70;95604.78;5093199;28;20203;-84
2021/09/14 10:40:40;;;;;;;4.03;3.75;;;;;;;27.83;44.21;95602.41;5097193;28;20658;-84
2021/09/14 10:43:21;;;;;;;4.30;3.97;;;;;;;27.73;45.27;95603.31;5113786;28;20195;-83
2021/09/14 10:45:49;;;;;;;4.22;3.70;;;;;;;27.71;45.49;95599.41;5113669;28;20260;-83
2021/09/14 10:48:21;;;;;;;4.97;3.85;;;;;;;27.87;44.73;95600.75;5114777;28;20210;-84
2021/09/14 10:50:50;;;;;;;4.32;3.85;;;;;;;27.96;44.82;95603.53;5108204;28;20222;-84
2021/09/14 10:53:29;;;;;;;4.00;3.70;;;;;;;27.89;45.22;95601.28;5114259;28;20204;-82
2021/09/14 10:55:57;;;;;;;4.38;3.95;;;;;;;27.97;44.14;95594.53;5113124;28;20219;-84
2021/09/14 10:58:24;;;;;;;4.38;4.00;;;;;;;27.88;43.98;95593.63;5113612;28;20206;-83
2021/09/14 11:00:55;;;;;;;4.15;3.85;;;;;;;27.67;44.21;95593.09;5112519;28;20554;-84
2021/09/14 11:03:22;;;;;;;4.20;3.90;;;;;;;27.62;44.52;95596.56;5112968;28;20230;-83
2021/09/14 11:05:53;;;;;;;4.15;3.72;;;;;;;27.70;44.69;95590.66;5113007;28;20223;-83
2021/09/14 11:08:25;;;;;;;4.35;4.00;;;;;;;27.80;44.60;95587.09;5113092;28;20200;-84
2021/09/14 11:10:56;;;;;;;4.38;3.97;;;;;;;27.77;45.04;95593.72;5112300;28;20621;-83
2021/09/14 11:13:24;;;;;;;4.10;3.80;;;;;;;27.71;44.28;95583.53;5094875;28;20204;-83
2021/09/14 11:15:58;;;;;;;4.10;3.80;;;;;;;27.62;44.95;95585.22;5091994;28;20220;-84
2021/09/14 11:18:26;;;;;;;3.95;3.65;;;;;;;27.61;46.14;95594.22;5099610;28;20215;-83
2021/09/14 11:21:00;;;;;;;4.35;3.95;;;;;;;27.72;44.28;95585.84;5098719;28;20270;-83
2021/09/14 11:23:27;;;;;;;4.57;4.18;;;;;;;27.73;43.73;95592.72;5112223;28;20198;-84
2021/09/14 11:25:55;;;;;;;4.13;3.70;;;;;;;27.83;43.76;95589.16;5113081;28;20701;-83
2021/09/14 11:28:23;;;;;;;4.25;3.85;;;;;;;27.90;44.18;95591.47;5113033;28;20692;-84
2021/09/14 11:30:54;;;;;;;3.67;3.30;;;;;;;27.92;42.85;95590.09;5111375;28;20222;-83
2021/09/14 11:33:24;;;;;;;3.85;3.50;;;;;;;27.88;41.97;95598.91;5110665;28;20196;-83
2021/09/14 11:35:51;;;;;;;4.15;3.85;;;;;;;27.94;42.84;95598.53;5103020;28;20231;-83
2021/09/14 11:38:24;;;;;;;4.97;3.80;;;;;;;27.94;43.02;95598.53;5092307;28;20565;-84
2021/09/14 11:40:52;;;;;;;3.97;3.67;;;;;;;28.02;41.74;95592.59;5106003;28;20210;-82
2021/09/14 11:43:20;;;;;;;3.67;3.38;;;;;;;28.11;42.43;95587.44;5110189;28;20717;-83
2021/09/14 11:45:47;;;;;;;4.70;3.40;;;;;;;28.21;42.41;95583.91;5111916;28;20245;-83
2021/09/14 11:48:23;;;;;;;4.20;3.78;;;;;;;28.19;42.23;95584.97;5112245;28;20195;-84
2021/09/14 11:51:01;;;;;;;4.60;3.85;;;;;;;28.27;43.20;95586.19;5111319;28;20222;-83
2021/09/14 11:53:28;;;;;;;3.90;3.70;;;;;;;28.25;42.63;95588.34;5112979;28;20305;-83
2021/09/14 11:55:55;;;;;;;4.43;4.07;;;;;;;28.41;44.31;95586.25;5112113;28;20250;-83
2021/09/14 11:58:29;;;;;;;4.22;3.92;;;;;;;28.50;44.21;95577.31;5112332;28;20199;-83
2021/09/14 12:00:56;;;;;;;4.07;3.78;;;;;;;28.56;43.41;95580.69;5110617;28;20198;-83
2021/09/14 12:03:35;;;;;;;3.95;3.55;;;;;;;28.48;42.93;95578.72;5112193;28;20282;-84
2021/09/14 12:06:01;;;;;;;4.15;3.80;;;;;;;28.52;41.82;95583.13;5108794;28;20211;-84
2021/09/14 12:08:31;;;;;;;5.43;3.97;;;;;;;28.58;41.93;95580.41;5109982;28;20733;-83
2021/09/14 12:11:02;;;;;;;4.07;3.78;;;;;;;28.77;43.41;95579.28;5112364;28;20225;-84
2021/09/14 12:13:36;;;;;;;4.47;3.72;;;;;;;28.90;41.05;95577.75;5111936;28;20195;-83
2021/09/14 12:16:09;;;;;;;4.20;3.88;;;;;;;29.01;42.11;95576.50;5112586;28;20264;-83
2021/09/14 12:18:38;;;;;;;4.03;3.47;;;;;;;28.76;40.72;95575.03;5113081;28;20199;-83
2021/09/14 12:21:05;;;;;;;7.05;3.80;;;;;;;28.63;41.77;95569.72;5111794;28;20192;-83
2021/09/14 12:23:32;;;;;;;4.00;3.70;;;;;;;28.64;41.81;95566.00;5111868;28;20245;-83
2021/09/14 12:25:58;;;;;;;5.10;3.40;;;;;;;28.81;41.84;95567.03;5111880;28;20215;-83
2021/09/14 12:28:25;;;;;;;3.60;3.40;;;;;;;28.93;41.63;95561.25;5107299;28;20196;-84
2021/09/14 12:30:52;;;;;;;3.85;3.55;;;;;;;29.00;41.45;95558.22;5091410;28;20224;-83
2021/09/14 12:33:18;;;;;;;4.22;3.90;;;;;;;29.13;41.78;95557.44;5092119;28;20197;-83
2021/09/14 12:35:46;;;;;;;3.92;3.63;;;;;;;29.19;41.65;95559.72;5095647;28;20223;-83
2021/09/14 12:38:13;;;;;;;5.20;4.07;;;;;;;29.30;43.08;95562.94;5111992;28;20200;-83